createdAt,value
2023-01-19T00:01:13.613Z,150.07
2023-01-19T00:03:59.410Z,146.80
2023-01-19T00:06:44.833Z,150.55
2023-01-19T00:09:33.403Z,161.50
2023-01-19T00:12:19.126Z,162.23
2023-01-19T00:15:06.725Z,140.70
2023-01-19T00:17:52.416Z,131.40
2023-01-19T00:20:39.302Z,108.38
2023-01-19T00:23:25.075Z,105.43
2023-01-19T00:26:11.118Z,112.22
2023-01-19T00:28:56.529Z,126.00
2023-01-19T00:31:43.112Z,124.97
2023-01-19T00:34:36.792Z,137.52
2023-01-19T00:37:22.925Z,121.97
2023-01-19T00:40:09.160Z,111.30
2023-01-19T00:42:55.854Z,122.05
2023-01-19T00:45:42.152Z,121.57
2023-01-19T00:48:29.547Z,115.25
2023-01-19T00:51:14.952Z,120.60
2023-01-19T00:54:04.983Z,115.38
2023-01-19T00:56:50.974Z,146.40
2023-01-19T00:59:37.044Z,101.50
2023-01-19T01:02:22.620Z,120.50
2023-01-19T01:05:09.692Z,126.95
2023-01-19T01:07:55.310Z,125.15
2023-01-19T01:10:41.437Z,123.25
2023-01-19T01:13:28.041Z,114.85
2023-01-19T01:16:17.330Z,107.93
2023-01-19T01:19:03.264Z,118.15
2023-01-19T01:21:49.458Z,137.00
2023-01-19T01:24:34.855Z,124.55
2023-01-19T01:27:20.881Z,106.50
2023-01-19T01:30:07.611Z,100.75
2023-01-19T01:32:53.794Z,103.45
2023-01-19T01:35:39.708Z,126.50
2023-01-19T01:38:25.681Z,97.80
2023-01-19T01:41:11.074Z,96.05
2023-01-19T01:44:02.362Z,88.82
2023-01-19T01:46:48.329Z,83.95
2023-01-19T01:49:34.328Z,91.50
2023-01-19T01:52:20.604Z,91.13
2023-01-19T01:55:07.234Z,101.95
2023-01-19T01:57:58.877Z,95.85
2023-01-19T02:01:03.461Z,79.55
2023-01-19T02:03:50.064Z,95.35
2023-01-19T02:06:54.710Z,102.32
2023-01-19T02:09:59.251Z,92.05
2023-01-19T02:13:03.720Z,94.07
2023-01-19T02:15:54.855Z,90.10
2023-01-19T02:18:41.201Z,99.65
2023-01-19T02:21:44.844Z,91.80
2023-01-19T02:24:30.668Z,99.82
2023-01-19T02:27:16.612Z,92.80
2023-01-19T02:30:03.807Z,81.28
2023-01-19T02:32:49.773Z,81.53
2023-01-19T02:35:38.004Z,85.50
2023-01-19T02:38:26.961Z,76.80
2023-01-19T02:41:16.976Z,80.97
2023-01-19T02:44:03.475Z,79.13
2023-01-19T02:46:49.539Z,67.28
2023-01-19T02:49:36.282Z,66.03
2023-01-19T02:52:22.656Z,70.57
2023-01-19T02:55:11.029Z,76.38
2023-01-19T02:58:12.227Z,74.97
2023-01-19T03:01:16.769Z,74.00
2023-01-19T03:04:12.415Z,72.60
2023-01-19T03:07:26.693Z,70.47
2023-01-19T03:10:31.076Z,69.13
2023-01-19T03:13:40.715Z,77.15
2023-01-19T03:16:42.019Z,71.22
2023-01-19T03:19:37.057Z,71.50
2023-01-19T03:22:27.194Z,70.85
2023-01-19T03:25:15.195Z,74.60
2023-01-19T03:28:02.177Z,79.40
2023-01-19T03:30:53.152Z,87.68
2023-01-19T03:33:41.313Z,89.97
2023-01-19T03:36:36.347Z,88.13
2023-01-19T03:39:24.238Z,87.10
2023-01-19T03:42:12.858Z,93.55
2023-01-19T03:45:00.027Z,88.20
2023-01-19T03:47:45.372Z,87.38
2023-01-19T03:50:31.949Z,88.93
2023-01-19T03:53:17.535Z,91.32
2023-01-19T03:56:03.855Z,96.40
2023-01-19T03:58:49.656Z,93.55
2023-01-19T04:01:35.897Z,86.72
2023-01-19T04:04:21.819Z,95.45
2023-01-19T04:07:09.765Z,88.72
2023-01-19T04:09:55.268Z,90.38
2023-01-19T04:12:41.190Z,94.35
2023-01-19T04:15:27.562Z,95.68
2023-01-19T04:18:13.386Z,89.00
2023-01-19T04:21:06.267Z,96.72
2023-01-19T04:23:53.287Z,95.40
2023-01-19T04:26:38.905Z,87.40
2023-01-19T04:29:25.018Z,83.38
2023-01-19T04:32:10.876Z,82.45
2023-01-19T04:34:56.631Z,77.57
2023-01-19T04:37:42.885Z,80.50
2023-01-19T04:40:28.821Z,84.03
2023-01-19T04:43:14.350Z,73.10
2023-01-19T04:46:00.161Z,72.43
2023-01-19T04:48:45.327Z,71.82
2023-01-19T04:51:31.388Z,71.50
2023-01-19T04:54:16.949Z,62.47
2023-01-19T04:57:02.661Z,75.15
2023-01-19T04:59:48.096Z,74.82
2023-01-19T05:02:34.581Z,73.82
2023-01-19T05:05:20.544Z,71.05
2023-01-19T05:08:06.488Z,68.68
2023-01-19T05:10:51.896Z,79.57
2023-01-19T05:13:37.638Z,75.22
2023-01-19T05:16:23.550Z,72.57
2023-01-19T05:19:09.481Z,63.78
2023-01-19T05:21:54.841Z,70.28
2023-01-19T05:24:40.629Z,65.60
2023-01-19T05:27:26.583Z,65.13
2023-01-19T05:30:13.554Z,59.08
2023-01-19T05:32:59.314Z,65.00
2023-01-19T05:35:45.569Z,63.17
2023-01-19T05:38:35.629Z,62.22
2023-01-19T05:41:21.655Z,63.45
2023-01-19T05:44:07.187Z,58.42
2023-01-19T05:46:53.028Z,68.45
2023-01-19T05:49:38.899Z,57.35
2023-01-19T05:52:25.383Z,63.15
2023-01-19T05:55:11.767Z,54.38
2023-01-19T05:57:57.474Z,55.42
2023-01-19T06:00:43.063Z,56.45
2023-01-19T06:03:28.906Z,62.95
2023-01-19T06:06:15.420Z,58.38
2023-01-19T06:09:01.688Z,65.80
2023-01-19T06:11:47.437Z,71.20
2023-01-19T06:14:33.232Z,134.60
2023-01-19T06:17:18.806Z,280.80
2023-01-19T06:20:05.420Z,89.10
2023-01-19T06:22:51.175Z,77.57
2023-01-19T06:25:36.834Z,77.10
2023-01-19T06:28:22.491Z,69.93
2023-01-19T06:31:08.538Z,73.30
2023-01-19T06:33:54.505Z,62.35
2023-01-19T06:36:40.427Z,72.10
2023-01-19T06:39:27.363Z,68.18
2023-01-19T06:42:13.427Z,66.65
2023-01-19T06:44:58.932Z,67.07
2023-01-19T06:47:47.714Z,62.75
2023-01-19T06:50:33.372Z,66.22
2023-01-19T06:53:22.654Z,75.50
2023-01-19T06:56:09.560Z,69.43
2023-01-19T06:58:55.635Z,71.13
2023-01-19T07:01:41.269Z,77.93
2023-01-19T07:04:27.575Z,79.82
2023-01-19T07:07:13.210Z,69.20
2023-01-19T07:09:59.276Z,74.95
2023-01-19T07:12:47.298Z,99.88
2023-01-19T07:15:33.607Z,93.50
2023-01-19T07:18:19.042Z,102.75
2023-01-19T07:21:05.551Z,94.43
2023-01-19T07:23:52.462Z,97.90
2023-01-19T07:26:38.222Z,97.30
2023-01-19T07:29:24.674Z,95.35
2023-01-19T07:32:10.703Z,96.38
2023-01-19T07:34:56.204Z,92.90
2023-01-19T07:37:41.956Z,89.30
2023-01-19T07:40:29.074Z,90.50
2023-01-19T07:43:15.639Z,92.38
2023-01-19T07:46:05.719Z,95.45
2023-01-19T07:48:51.934Z,92.07
2023-01-19T07:51:37.664Z,89.53
2023-01-19T07:54:23.815Z,84.53
2023-01-19T07:57:09.327Z,84.88
2023-01-19T07:59:54.957Z,84.28
2023-01-19T08:02:41.183Z,86.88
2023-01-19T08:05:29.249Z,88.47
2023-01-19T08:08:14.804Z,83.20
2023-01-19T08:11:00.849Z,89.35
2023-01-19T08:13:46.547Z,76.45
2023-01-19T08:16:32.361Z,77.32
2023-01-19T08:19:19.393Z,74.38
2023-01-19T08:22:06.099Z,68.20
2023-01-19T08:24:51.959Z,67.45
2023-01-19T08:27:38.318Z,63.22
2023-01-19T08:30:26.749Z,63.22
2023-01-19T08:33:13.886Z,67.32
2023-01-19T08:35:59.393Z,72.03
2023-01-19T08:38:46.224Z,59.00
2023-01-19T08:41:32.477Z,59.50
2023-01-19T08:44:18.462Z,104.60
2023-01-19T08:47:04.034Z,70.72
2023-01-19T08:49:49.779Z,80.82
2023-01-19T08:52:35.631Z,83.60
2023-01-19T08:55:21.603Z,105.05
2023-01-19T08:58:08.830Z,98.07
2023-01-19T09:00:56.104Z,76.03
2023-01-19T09:03:41.999Z,72.35
2023-01-19T09:06:28.516Z,70.15
2023-01-19T09:09:14.246Z,96.38
2023-01-19T09:11:59.880Z,87.00
2023-01-19T09:14:45.415Z,117.88
2023-01-19T09:17:31.404Z,139.60
2023-01-19T09:20:17.149Z,108.55
2023-01-19T09:23:03.545Z,104.78
2023-01-19T09:25:49.532Z,78.22
2023-01-19T09:28:35.572Z,85.00
2023-01-19T09:31:21.520Z,119.75
2023-01-19T09:34:07.525Z,192.88
2023-01-19T09:36:53.153Z,79.57
2023-01-19T09:39:38.807Z,87.45
2023-01-19T09:42:43.954Z,97.97
2023-01-19T09:45:35.897Z,92.80
2023-01-19T09:48:48.514Z,79.25
2023-01-19T09:51:40.776Z,86.78
2023-01-19T09:54:41.117Z,112.15
2023-01-19T09:57:27.682Z,112.13
2023-01-19T10:00:17.761Z,122.40
2023-01-19T10:03:16.358Z,116.03
2023-01-19T10:06:04.864Z,100.75
2023-01-19T10:09:22.769Z,105.68
2023-01-19T10:12:19.825Z,123.43
2023-01-19T10:15:40.920Z,124.32
2023-01-19T10:18:34.615Z,110.10
2023-01-19T10:21:23.606Z,91.80
2023-01-19T10:24:18.726Z,76.75
2023-01-19T10:27:11.201Z,77.90
2023-01-19T10:29:57.817Z,103.30
2023-01-19T10:32:44.558Z,107.80
2023-01-19T10:35:30.196Z,98.60
2023-01-19T10:38:19.882Z,98.65
2023-01-19T10:41:07.982Z,98.72
2023-01-19T10:44:05.444Z,91.45
2023-01-19T10:46:51.491Z,93.57
2023-01-19T10:49:42.863Z,78.13
2023-01-19T10:52:34.202Z,80.10
2023-01-19T10:55:40.341Z,73.68
2023-01-19T10:58:31.154Z,69.38
2023-01-19T11:01:21.930Z,71.80
2023-01-19T11:04:29.405Z,68.95
2023-01-19T11:07:33.002Z,93.90
2023-01-19T11:10:25.277Z,74.00
2023-01-19T11:13:13.331Z,76.68
2023-01-19T11:16:03.710Z,57.90
2023-01-19T11:18:52.519Z,60.95
2023-01-19T11:21:38.284Z,55.35
2023-01-19T11:24:24.755Z,56.13
2023-01-19T11:27:10.709Z,57.03
2023-01-19T11:30:05.311Z,58.10
2023-01-19T11:32:51.129Z,48.70
2023-01-19T11:35:41.395Z,53.58
2023-01-19T11:38:27.681Z,45.45
2023-01-19T11:41:20.733Z,48.60
2023-01-19T11:44:18.529Z,38.50
2023-01-19T11:47:06.793Z,53.70
2023-01-19T11:49:59.533Z,43.33
2023-01-19T11:52:53.526Z,48.72
2023-01-19T11:56:01.491Z,46.70
2023-01-19T11:58:47.507Z,48.28
2023-01-19T12:01:34.838Z,75.07
2023-01-19T12:04:27.611Z,43.55
2023-01-19T12:07:14.898Z,31.27
2023-01-19T12:10:16.687Z,37.33
2023-01-19T12:13:03.231Z,32.85
2023-01-19T12:16:12.944Z,21.50
2023-01-19T12:19:05.537Z,35.03
2023-01-19T12:21:52.574Z,26.67
2023-01-19T12:24:47.449Z,44.90
2023-01-19T12:27:41.608Z,27.30
2023-01-19T12:30:30.800Z,37.10
2023-01-19T12:33:23.046Z,28.23
2023-01-19T12:36:30.037Z,36.47
2023-01-19T12:39:21.473Z,23.55
2023-01-19T12:42:21.337Z,27.13
2023-01-19T12:45:37.557Z,43.50
2023-01-19T12:48:25.941Z,33.53
2023-01-19T12:51:23.606Z,40.45
2023-01-19T12:54:21.196Z,27.13
2023-01-19T12:57:23.637Z,24.58
2023-01-19T13:00:21.626Z,26.50
2023-01-19T13:03:19.620Z,34.33
2023-01-19T13:06:06.270Z,40.83
2023-01-19T13:09:02.603Z,27.25
2023-01-19T13:12:15.699Z,53.40
2023-01-19T13:18:09.697Z,25.52
2023-01-19T13:21:10.628Z,25.58
2023-01-19T13:24:03.873Z,26.80
2023-01-19T13:27:01.106Z,27.70
2023-01-19T13:29:51.984Z,27.63
2023-01-19T13:32:41.375Z,21.85
2023-01-19T13:35:32.572Z,28.63
2023-01-19T13:38:22.593Z,25.55
2023-01-19T13:41:13.224Z,31.20
2023-01-19T13:44:08.756Z,30.20
2023-01-19T13:46:59.975Z,24.10
2023-01-19T13:49:46.937Z,22.17
2023-01-19T13:52:37.734Z,29.10
2023-01-19T13:55:28.409Z,30.75
2023-01-19T13:58:23.824Z,36.95
2023-01-19T14:01:29.099Z,29.05
2023-01-19T14:04:34.257Z,28.00
2023-01-19T14:07:26.452Z,27.88
2023-01-19T14:10:15.489Z,29.67
2023-01-19T14:13:06.739Z,29.98
2023-01-19T14:15:56.775Z,24.75
2023-01-19T14:18:43.909Z,25.58
2023-01-19T14:21:50.373Z,40.17
2023-01-19T14:24:37.380Z,37.05
2023-01-19T14:27:24.834Z,98.35
2023-01-19T14:30:25.764Z,39.83
2023-01-19T14:33:44.299Z,198.43
2023-01-19T14:36:36.295Z,173.02
2023-01-19T14:39:33.512Z,257.20
2023-01-19T14:42:26.931Z,62.28
2023-01-19T14:45:34.694Z,77.45
2023-01-19T14:48:22.588Z,33.80
2023-01-19T14:51:22.939Z,36.42
2023-01-19T14:54:17.328Z,35.88
2023-01-19T14:57:17.141Z,28.75
2023-01-19T15:00:17.762Z,29.73
2023-01-19T15:03:06.468Z,29.55
2023-01-19T15:06:04.566Z,30.27
2023-01-19T15:08:56.271Z,282.60
2023-01-19T15:11:51.024Z,103.32
2023-01-19T15:14:36.689Z,43.13
2023-01-19T15:17:25.857Z,32.38
2023-01-19T15:20:20.784Z,36.45
2023-01-19T15:23:14.136Z,41.60
2023-01-19T15:26:03.280Z,61.15
2023-01-19T15:28:56.237Z,53.50
2023-01-19T15:31:44.306Z,39.53
2023-01-19T15:34:44.583Z,43.22
2023-01-19T15:37:36.561Z,82.45
2023-01-19T15:40:31.452Z,103.53
2023-01-19T15:43:17.744Z,53.80
2023-01-19T15:46:07.540Z,39.15
2023-01-19T15:48:54.204Z,34.25
2023-01-19T15:51:43.882Z,36.92
2023-01-19T15:54:33.946Z,35.28
2023-01-19T15:57:21.855Z,35.38
2023-01-19T16:00:11.486Z,33.53
2023-01-19T16:03:05.813Z,43.28
2023-01-19T16:08:43.340Z,91.10
2023-01-19T16:11:33.553Z,54.28
2023-01-19T16:14:20.008Z,46.67
2023-01-19T16:17:07.730Z,48.05
2023-01-19T16:19:58.439Z,39.30
2023-01-19T16:22:44.953Z,37.53
2023-01-19T16:25:33.580Z,39.08
2023-01-19T16:28:25.759Z,73.55
2023-01-19T16:31:12.389Z,53.53
2023-01-19T16:34:01.717Z,61.03
2023-01-19T16:36:50.496Z,64.15
2023-01-19T16:39:36.837Z,82.38
2023-01-19T16:42:29.092Z,214.75
2023-01-19T16:45:20.272Z,350.10
2023-01-19T16:48:14.171Z,337.90
2023-01-19T16:51:06.808Z,146.40
2023-01-19T16:53:55.140Z,133.80
2023-01-19T16:56:46.187Z,119.32
2023-01-19T16:59:32.780Z,64.15
2023-01-19T17:02:19.823Z,71.55
2023-01-19T17:05:10.245Z,95.43
2023-01-19T17:08:00.147Z,114.70
2023-01-19T17:10:49.644Z,124.60
2023-01-19T17:13:38.261Z,81.57
2023-01-19T17:16:26.263Z,115.70
2023-01-19T17:19:17.692Z,71.07
2023-01-19T17:22:07.200Z,52.10
2023-01-19T17:24:53.831Z,60.60
2023-01-19T17:27:43.296Z,87.32
2023-01-19T17:30:30.209Z,85.97
2023-01-19T17:33:26.414Z,72.20
2023-01-19T17:36:38.438Z,115.82
2023-01-19T17:39:45.154Z,59.25
2023-01-19T17:48:26.640Z,98.47
2023-01-19T17:52:37.591Z,78.53
2023-01-19T18:05:31.279Z,58.85
2023-01-19T18:08:17.042Z,73.00
2023-01-19T18:11:03.286Z,115.20
2023-01-19T18:13:50.718Z,95.30
2023-01-19T18:16:36.868Z,95.47
2023-01-19T18:19:23.559Z,93.40
2023-01-19T18:22:10.671Z,85.07
2023-01-19T18:24:59.414Z,76.07
2023-01-19T18:27:46.272Z,73.80
2023-01-19T18:30:34.967Z,82.15
2023-01-19T18:33:21.157Z,97.40
2023-01-19T18:36:08.270Z,100.28
2023-01-19T18:38:54.113Z,141.73
2023-01-19T18:41:42.314Z,205.07
2023-01-19T18:44:28.888Z,168.25
2023-01-19T18:47:15.012Z,180.13
2023-01-19T18:50:01.143Z,243.60
2023-01-19T18:52:47.820Z,198.95
2023-01-19T18:55:36.422Z,175.88
2023-01-19T18:58:23.120Z,111.70
2023-01-19T19:01:24.792Z,97.22
2023-01-19T19:04:10.594Z,82.88
2023-01-19T19:06:56.594Z,93.85
2023-01-19T19:09:42.309Z,124.90
2023-01-19T19:12:28.900Z,139.52
2023-01-19T19:15:16.813Z,169.43
2023-01-19T19:18:13.534Z,190.50
2023-01-19T19:21:16.892Z,217.15
2023-01-19T19:24:17.115Z,199.93
2023-01-19T19:27:06.676Z,165.77
2023-01-19T19:29:57.598Z,181.10
2023-01-19T19:33:17.746Z,136.55
2023-01-19T19:36:06.820Z,353.20
2023-01-19T19:38:52.973Z,264.40
2023-01-19T19:41:39.064Z,315.73
2023-01-19T19:44:24.950Z,382.85
2023-01-19T19:47:11.120Z,421.15
2023-01-19T19:49:57.028Z,373.63
2023-01-19T19:52:43.455Z,348.92
2023-01-19T19:55:29.576Z,438.40
2023-01-19T19:58:16.230Z,387.52
2023-01-19T20:01:18.092Z,285.88
2023-01-19T20:04:09.479Z,214.35
2023-01-19T20:06:55.319Z,147.82
2023-01-19T20:09:41.935Z,129.73
2023-01-19T20:12:27.632Z,145.35
2023-01-19T20:15:14.024Z,194.20
2023-01-19T20:17:59.821Z,171.00
2023-01-19T20:20:46.441Z,198.02
2023-01-19T20:23:34.267Z,222.02
2023-01-19T20:26:25.290Z,216.30
2023-01-19T20:29:12.008Z,184.82
2023-01-19T20:31:58.228Z,154.82
2023-01-19T20:34:44.652Z,133.57
2023-01-19T20:37:30.733Z,115.20
2023-01-19T20:40:17.208Z,107.43
2023-01-19T20:43:03.672Z,105.75
2023-01-19T20:45:51.882Z,106.18
2023-01-19T20:48:39.319Z,93.95
2023-01-19T20:51:27.033Z,105.68
2023-01-19T20:54:15.933Z,114.13
2023-01-19T20:57:01.625Z,132.55
2023-01-19T20:59:47.600Z,205.30
2023-01-19T21:02:33.189Z,310.00
2023-01-19T21:05:20.008Z,258.48
2023-01-19T21:08:06.375Z,301.33
2023-01-19T21:10:56.385Z,248.15
2023-01-19T21:13:42.324Z,183.68
2023-01-19T21:16:30.539Z,168.77
2023-01-19T21:19:17.235Z,216.07
2023-01-19T21:22:03.467Z,266.17
2023-01-19T21:24:49.484Z,322.30
2023-01-19T21:27:35.577Z,230.82
2023-01-19T21:30:21.761Z,158.43
2023-01-19T21:33:07.947Z,175.68
2023-01-19T21:35:57.770Z,121.40
2023-01-19T21:38:44.022Z,115.28
2023-01-19T21:41:30.628Z,132.43
2023-01-19T21:44:16.690Z,132.90
2023-01-19T21:47:02.362Z,197.82
2023-01-19T21:49:48.551Z,131.70
2023-01-19T21:52:34.216Z,111.13
2023-01-19T21:55:20.318Z,116.97
2023-01-19T21:58:06.503Z,107.97
2023-01-19T22:01:02.256Z,125.38
2023-01-19T22:03:48.044Z,146.10
2023-01-19T22:06:33.949Z,121.78
2023-01-19T22:09:19.379Z,117.75
2023-01-19T22:12:06.013Z,139.68
2023-01-19T22:14:52.332Z,154.45
2023-01-19T22:17:38.723Z,159.95
2023-01-19T22:20:24.530Z,141.60
2023-01-19T22:23:10.770Z,103.25
2023-01-19T22:26:01.192Z,89.82
2023-01-19T22:28:47.585Z,93.40
2023-01-19T22:31:34.666Z,94.72
2023-01-19T22:34:20.404Z,99.65
2023-01-19T22:37:06.447Z,92.72
2023-01-19T22:39:53.301Z,86.38
2023-01-19T22:42:39.143Z,99.50
2023-01-19T22:45:25.171Z,92.50
2023-01-19T22:48:11.077Z,87.00
2023-01-19T22:50:57.557Z,89.25
2023-01-19T22:53:43.353Z,120.38
2023-01-19T22:56:30.918Z,135.65
2023-01-19T22:59:16.628Z,161.05
2023-01-19T23:02:02.501Z,186.98
2023-01-19T23:04:48.273Z,216.10
2023-01-19T23:07:34.513Z,223.85
2023-01-19T23:10:20.244Z,188.32
2023-01-19T23:13:06.230Z,248.48
2023-01-19T23:15:51.815Z,287.30
2023-01-19T23:18:37.982Z,400.40
2023-01-19T23:21:25.971Z,378.38
2023-01-19T23:24:12.335Z,228.90
2023-01-19T23:26:57.804Z,200.32
2023-01-19T23:29:44.134Z,263.48
2023-01-19T23:32:30.216Z,246.73
2023-01-19T23:35:16.493Z,222.15
2023-01-19T23:38:01.823Z,206.02
2023-01-19T23:40:48.391Z,205.63
2023-01-19T23:43:33.993Z,267.05
2023-01-19T23:46:20.834Z,297.00
2023-01-19T23:49:06.773Z,182.57
2023-01-19T23:51:53.221Z,129.73
2023-01-19T23:54:39.091Z,137.18
2023-01-19T23:57:24.747Z,155.75
